Terminal Aerodrome Forecast
Issued by NWS Grand Forks, ND

Home | Current Version | Previous Version | Text Only | Print | Product List | Glossary On
Versions: 1 2 3 4 5 6 7 8 9 10 11 12 13 14 15 16
000
FTUS43 KFGF 150500
TAFGFK
TAF
KGFK 150520Z 1506/1606 34015G22KT 5SM -FZDZ BR OVC006
     FM150700 34016G22KT 4SM -SN BR OVC004
     FM151200 34020KT 6SM BR OVC008
     FM151900 35024G30KT P6SM BKN015
     FM160100 34015KT P6SM BKN020=

USA.gov is the U.S. government's official web portal to all federal, state and local government web resources and services.